Time;durP1;ratioP1;P1;durP2;ratioP2;P2;SDS_P1;SDS_P2;PMS_P1;PMS_P2;Temp;Humidity;BMP_temperature;BMP_pressure;BME280_temperature;BME280_humidity;BME280_pressure;Samples;Min_cycle;Max_cycle;Signal;HPM_P1;HPM_P2
2021/06/06 00:01:35;;;;;;;7.07;4.05;;;23.40;72.20;;;;;;5115133;28;20130;-61
2021/06/06 00:04:04;;;;;;;5.95;4.47;;;23.50;72.40;;;;;;5103342;28;20052;-61
2021/06/06 00:06:35;;;;;;;7.05;4.85;;;23.40;72.50;;;;;;5073822;28;20097;-61
2021/06/06 00:09:11;;;;;;;6.82;4.45;;;23.40;72.60;;;;;;5076018;28;20459;-61
2021/06/06 00:11:43;;;;;;;6.90;4.47;;;23.30;72.80;;;;;;5073957;28;20059;-61
2021/06/06 00:14:15;;;;;;;9.38;4.72;;;23.20;73.00;;;;;;5079073;28;20109;-61
2021/06/06 00:16:48;;;;;;;9.27;5.22;;;23.10;73.20;;;;;;5115508;28;20470;-62
2021/06/06 00:19:18;;;;;;;6.43;5.05;;;23.00;73.60;;;;;;5101824;28;20047;-61
2021/06/06 00:21:46;;;;;;;6.90;5.07;;;22.90;73.50;;;;;;5115530;28;20134;-61
2021/06/06 00:24:19;;;;;;;6.53;5.13;;;22.80;73.50;;;;;;5101473;28;20489;-62
2021/06/06 00:26:48;;;;;;;7.57;5.50;;;22.80;73.80;;;;;;5113686;28;20050;-61
2021/06/06 00:29:16;;;;;;;9.48;6.10;;;22.70;74.00;;;;;;5082677;28;20426;-61
2021/06/06 00:31:44;;;;;;;8.43;5.47;;;22.60;74.20;;;;;;5115325;28;20495;-60
2021/06/06 00:34:12;;;;;;;8.30;6.13;;;22.50;74.80;;;;;;5102467;28;20547;-61
2021/06/06 00:36:40;;;;;;;7.38;5.50;;;22.50;75.30;;;;;;5113496;28;20146;-61
2021/06/06 00:39:11;;;;;;;8.05;6.30;;;22.20;76.10;;;;;;5101431;28;20059;-61
2021/06/06 00:41:46;;;;;;;8.43;5.93;;;22.30;76.30;;;;;;5113753;28;20401;-60
2021/06/06 00:44:16;;;;;;;9.27;5.80;;;22.20;76.80;;;;;;5100810;28;20052;-61
2021/06/06 00:46:45;;;;;;;8.73;5.53;;;22.20;77.20;;;;;;5113602;28;20036;-61
2021/06/06 00:49:14;;;;;;;8.27;5.75;;;22.10;77.40;;;;;;5100738;28;20421;-61
2021/06/06 00:51:47;;;;;;;12.38;5.60;;;22.10;77.80;;;;;;5113790;28;20047;-60
2021/06/06 00:54:25;;;;;;;5.90;5.10;;;22.10;78.00;;;;;;5101085;28;20044;-61
2021/06/06 00:57:00;;;;;;;6.88;5.30;;;22.10;78.50;;;;;;5112939;28;20051;-61
2021/06/06 00:59:33;;;;;;;6.90;5.07;;;22.20;78.50;;;;;;5085416;28;20048;-60
2021/06/06 01:02:04;;;;;;;8.25;6.22;;;22.30;78.40;;;;;;5056636;28;20044;-61
2021/06/06 01:04:33;;;;;;;8.57;5.28;;;22.40;78.60;;;;;;5103043;28;20051;-61
2021/06/06 01:07:03;;;;;;;8.63;6.25;;;22.50;79.20;;;;;;5076453;28;20048;-61
2021/06/06 01:09:32;;;;;;;14.98;8.13;;;22.50;79.50;;;;;;5057656;28;20052;-60
2021/06/06 01:12:29;;;;;;;11.05;7.82;;;22.30;79.90;;;;;;5092780;28;20097;-61
2021/06/06 01:15:16;;;;;;;11.20;8.90;;;22.20;80.40;;;;;;5081680;28;20055;-61
2021/06/06 01:18:24;;;;;;;12.90;9.63;;;22.00;80.90;;;;;;5077993;28;20380;-61
2021/06/06 01:21:19;;;;;;;8.80;7.10;;;21.90;81.30;;;;;;5085713;28;20490;-60
2021/06/06 01:24:17;;;;;;;10.95;8.40;;;21.90;81.20;;;;;;5103674;28;20085;-61
2021/06/06 01:26:59;;;;;;;11.57;8.68;;;22.00;81.10;;;;;;5073332;28;20410;-60
2021/06/06 01:29:40;;;;;;;11.33;6.83;;;22.10;80.80;;;;;;5103026;28;20058;-61
2021/06/06 01:32:18;;;;;;;8.63;6.63;;;22.20;80.60;;;;;;5092844;28;20040;-60
2021/06/06 01:34:54;;;;;;;8.35;5.95;;;22.20;80.70;;;;;;5102586;28;20497;-60
2021/06/06 01:37:25;;;;;;;6.38;5.63;;;21.90;81.20;;;;;;5111317;28;20043;-60
2021/06/06 01:40:17;;;;;;;6.88;5.63;;;21.90;81.50;;;;;;5103248;28;20061;-62
2021/06/06 01:42:52;;;;;;;10.27;4.85;;;21.90;81.90;;;;;;5110185;28;20040;-61
2021/06/06 01:45:35;;;;;;;8.43;4.75;;;21.80;82.40;;;;;;5104984;28;20048;-60
2021/06/06 01:48:09;;;;;;;7.20;4.72;;;21.80;82.80;;;;;;5075394;28;20050;-61
2021/06/06 01:50:49;;;;;;;6.05;4.85;;;21.70;82.80;;;;;;5106348;28;20079;-60
2021/06/06 01:53:20;;;;;;;8.38;4.85;;;21.60;83.00;;;;;;5106536;28;20047;-61
2021/06/06 01:55:53;;;;;;;6.90;4.53;;;21.60;83.30;;;;;;5106692;28;20054;-60
2021/06/06 01:58:23;;;;;;;6.22;4.78;;;21.50;83.70;;;;;;5106049;28;20048;-60
2021/06/06 02:01:07;;;;;;;5.20;4.18;;;21.60;83.70;;;;;;5107458;28;20050;-61
2021/06/06 02:03:37;;;;;;;4.95;3.97;;;21.60;83.70;;;;;;5103780;28;20054;-60
2021/06/06 02:06:15;;;;;;;5.63;5.07;;;21.70;83.50;;;;;;5094335;28;20452;-61
2021/06/06 02:08:46;;;;;;;5.35;4.10;;;21.70;83.40;;;;;;5103528;28;20293;-60
2021/06/06 02:11:28;;;;;;;5.93;3.97;;;21.70;83.40;;;;;;5110983;28;20139;-61
2021/06/06 02:14:01;;;;;;;5.53;4.22;;;21.70;83.20;;;;;;5102483;28;20131;-60
2021/06/06 02:16:39;;;;;;;6.63;4.32;;;21.90;83.00;;;;;;5072006;28;20080;-60
2021/06/06 02:19:26;;;;;;;7.90;4.75;;;21.90;82.30;;;;;;5079914;28;20063;-60
2021/06/06 02:22:07;;;;;;;7.18;4.40;;;22.00;82.20;;;;;;5077545;28;20051;-61
2021/06/06 02:24:40;;;;;;;5.93;4.22;;;22.10;81.70;;;;;;5065348;28;20582;-60
2021/06/06 02:27:38;;;;;;;4.90;4.13;;;22.20;81.10;;;;;;5077598;28;20517;-60
2021/06/06 02:30:15;;;;;;;6.32;4.82;;;22.30;80.60;;;;;;5066347;28;20487;-60
2021/06/06 02:32:57;;;;;;;7.28;4.80;;;22.30;80.30;;;;;;5069604;28;20046;-60
2021/06/06 02:35:44;;;;;;;8.35;5.18;;;22.40;80.10;;;;;;5108599;28;20058;-60
2021/06/06 02:38:24;;;;;;;8.50;5.25;;;22.30;79.80;;;;;;5112193;28;20401;-60
2021/06/06 02:41:09;;;;;;;7.00;5.50;;;22.30;79.70;;;;;;5111394;28;20054;-60
2021/06/06 02:44:12;;;;;;;5.70;4.57;;;22.40;79.50;;;;;;5090458;28;20379;-60
2021/06/06 02:46:46;;;;;;;7.47;5.45;;;22.30;79.50;;;;;;5075076;28;20044;-60
2021/06/06 02:49:24;;;;;;;6.55;5.07;;;22.30;79.70;;;;;;5086815;28;20472;-60
2021/06/06 02:52:03;;;;;;;8.27;4.95;;;22.30;79.60;;;;;;5115896;28;20478;-60
2021/06/06 02:54:45;;;;;;;8.43;5.90;;;22.40;79.60;;;;;;5074760;28;20055;-61
2021/06/06 02:57:22;;;;;;;7.75;5.32;;;22.40;79.70;;;;;;5063998;28;20048;-60
2021/06/06 03:00:06;;;;;;;7.05;5.32;;;22.40;79.70;;;;;;5084098;28;20052;-60
2021/06/06 03:02:45;;;;;;;8.48;5.15;;;22.40;79.60;;;;;;5082960;28;20070;-60
2021/06/06 03:05:18;;;;;;;8.60;5.55;;;22.40;79.60;;;;;;5089771;28;20447;-60
2021/06/06 03:07:50;;;;;;;10.77;5.78;;;22.40;79.60;;;;;;5111921;28;20040;-60
2021/06/06 03:10:24;;;;;;;6.03;5.10;;;22.40;79.50;;;;;;5089924;28;20768;-60
2021/06/06 03:12:55;;;;;;;7.25;5.30;;;22.50;79.50;;;;;;5111756;28;20051;-60
2021/06/06 03:15:34;;;;;;;6.72;5.30;;;22.50;79.50;;;;;;5089744;28;20105;-60
2021/06/06 03:18:05;;;;;;;7.40;5.45;;;22.50;79.60;;;;;;5095044;28;20051;-60
2021/06/06 03:20:39;;;;;;;7.95;4.95;;;22.50;79.40;;;;;;5090193;28;20055;-60
2021/06/06 03:23:16;;;;;;;8.70;4.95;;;22.60;79.40;;;;;;5094368;28;20075;-60
2021/06/06 03:25:53;;;;;;;6.32;5.40;;;22.60;79.40;;;;;;5108570;28;20059;-60
2021/06/06 03:28:33;;;;;;;9.05;5.15;;;22.60;79.50;;;;;;5071761;28;20123;-60
2021/06/06 03:31:11;;;;;;;7.40;4.78;;;22.60;79.50;;;;;;5107734;28;20104;-60
2021/06/06 03:33:56;;;;;;;7.07;5.40;;;22.60;79.60;;;;;;5106561;28;20509;-60
2021/06/06 03:36:44;;;;;;;9.05;5.40;;;22.60;79.60;;;;;;5060136;28;20056;-61
2021/06/06 03:39:27;;;;;;;8.07;5.10;;;22.60;79.60;;;;;;5102319;28;20078;-60
2021/06/06 03:42:01;;;;;;;6.70;5.28;;;22.60;79.50;;;;;;5097278;28;20047;-60
2021/06/06 03:44:32;;;;;;;7.28;5.07;;;22.70;79.40;;;;;;5093082;28;20058;-60
2021/06/06 03:47:00;;;;;;;11.30;5.32;;;22.80;79.30;;;;;;5115270;28;20047;-61
2021/06/06 03:49:27;;;;;;;7.43;5.35;;;22.80;79.20;;;;;;5103983;28;20081;-60
2021/06/06 03:51:56;;;;;;;7.93;5.70;;;22.80;79.10;;;;;;5088902;28;20382;-60
2021/06/06 03:54:25;;;;;;;7.57;5.70;;;22.90;78.80;;;;;;5103279;28;20448;-60
2021/06/06 03:56:53;;;;;;;6.15;4.60;;;23.00;78.90;;;;;;5097297;28;20131;-60
2021/06/06 03:59:25;;;;;;;8.55;5.75;;;23.00;79.00;;;;;;5099428;28;20130;-60
2021/06/06 04:01:53;;;;;;;7.43;6.43;;;23.00;78.90;;;;;;5066357;28;20055;-60
2021/06/06 04:04:23;;;;;;;10.70;7.25;;;23.10;78.90;;;;;;5089001;28;20048;-60
2021/06/06 04:06:52;;;;;;;15.40;9.15;;;23.10;78.70;;;;;;5074245;28;20048;-60
2021/06/06 04:09:21;;;;;;;18.00;10.50;;;23.10;78.50;;;;;;5084955;28;20056;-60
2021/06/06 04:11:50;;;;;;;17.52;11.52;;;23.10;78.30;;;;;;5114555;28;20047;-60
2021/06/06 04:14:19;;;;;;;16.27;10.88;;;23.10;78.10;;;;;;5101553;28;20048;-60
2021/06/06 04:16:58;;;;;;;15.18;11.52;;;23.10;78.10;;;;;;5114699;28;20043;-61
2021/06/06 04:19:29;;;;;;;17.58;12.02;;;23.10;78.10;;;;;;5102320;28;20131;-60
2021/06/06 04:21:57;;;;;;;18.48;10.90;;;23.10;78.20;;;;;;5103778;28;20059;-62
2021/06/06 04:24:26;;;;;;;12.80;10.13;;;23.20;78.20;;;;;;5101145;28;20394;-61
2021/06/06 04:26:57;;;;;;;14.77;9.35;;;23.30;78.20;;;;;;5085293;28;20446;-61
2021/06/06 04:29:25;;;;;;;12.23;8.85;;;23.30;78.20;;;;;;5090625;28;20063;-60
2021/06/06 04:31:58;;;;;;;10.93;8.70;;;23.30;78.20;;;;;;5102225;28;20486;-61
2021/06/06 04:34:28;;;;;;;11.98;8.30;;;23.40;78.00;;;;;;5101524;28;20395;-60
2021/06/06 04:36:55;;;;;;;10.88;8.50;;;23.40;78.10;;;;;;5102252;28;20059;-61
2021/06/06 04:39:26;;;;;;;12.52;8.55;;;23.40;78.30;;;;;;5107418;28;20052;-61
2021/06/06 04:41:54;;;;;;;12.52;9.20;;;23.40;78.10;;;;;;5113715;28;20047;-60
2021/06/06 04:44:26;;;;;;;11.60;8.80;;;23.40;78.10;;;;;;5102414;28;20385;-61
2021/06/06 04:46:57;;;;;;;13.50;9.18;;;23.40;78.10;;;;;;5101509;28;20059;-60
2021/06/06 04:49:26;;;;;;;10.10;8.40;;;23.40;78.40;;;;;;5090721;28;20139;-60
2021/06/06 04:51:54;;;;;;;13.30;9.60;;;23.40;78.50;;;;;;5104123;28;20043;-60
2021/06/06 04:54:32;;;;;;;11.88;8.18;;;23.50;78.50;;;;;;5083758;28;20083;-61
2021/06/06 04:57:01;;;;;;;13.18;9.15;;;23.60;78.30;;;;;;5099547;28;20044;-61
2021/06/06 04:59:35;;;;;;;10.32;7.72;;;23.70;78.00;;;;;;5082977;28;20040;-60
2021/06/06 05:02:11;;;;;;;9.75;7.38;;;23.90;77.80;;;;;;5082774;28;20044;-61
2021/06/06 05:04:46;;;;;;;12.30;7.97;;;24.10;77.40;;;;;;5101302;28;20409;-60
2021/06/06 05:07:18;;;;;;;12.65;7.55;;;24.30;76.80;;;;;;5095251;28;21817;-60
2021/06/06 05:09:48;;;;;;;9.10;6.72;;;24.50;76.50;;;;;;5105461;28;20542;-60
2021/06/06 05:12:17;;;;;;;9.57;6.70;;;24.80;76.00;;;;;;5098497;28;20054;-60
2021/06/06 05:14:45;;;;;;;9.27;6.13;;;24.90;75.50;;;;;;5104106;28;20055;-60
2021/06/06 05:17:13;;;;;;;13.40;5.97;;;25.10;75.50;;;;;;5075792;28;20376;-60
2021/06/06 05:19:52;;;;;;;8.75;5.80;;;25.30;75.70;;;;;;5079808;28;20040;-60
2021/06/06 05:22:20;;;;;;;7.57;6.13;;;25.40;75.70;;;;;;5098605;28;20040;-60
2021/06/06 05:24:51;;;;;;;9.05;4.97;;;25.70;75.70;;;;;;5081879;28;20043;-61
2021/06/06 05:27:21;;;;;;;10.13;6.25;;;25.90;75.70;;;;;;5100705;28;20047;-61
2021/06/06 05:29:48;;;;;;;10.30;5.40;;;26.10;75.60;;;;;;5104189;28;20065;-60
2021/06/06 05:32:16;;;;;;;6.90;4.43;;;26.20;76.50;;;;;;5106407;28;20051;-62
2021/06/06 05:34:44;;;;;;;6.57;3.83;;;26.20;77.30;;;;;;5098373;28;20048;-61
2021/06/06 05:37:13;;;;;;;7.10;3.92;;;26.30;77.40;;;;;;5099722;28;20053;-61
2021/06/06 05:39:42;;;;;;;7.90;4.38;;;26.20;77.70;;;;;;5104707;28;20067;-60
2021/06/06 05:42:10;;;;;;;6.90;4.28;;;26.30;77.70;;;;;;5096515;28;20401;-61
2021/06/06 05:44:38;;;;;;;4.97;3.70;;;26.40;77.40;;;;;;5098114;28;20048;-60
2021/06/06 05:47:06;;;;;;;8.93;4.80;;;26.60;77.10;;;;;;5097167;28;20051;-61
2021/06/06 05:49:34;;;;;;;6.28;4.95;;;26.80;76.20;;;;;;5098030;28;20822;-60
2021/06/06 05:52:07;;;;;;;7.20;4.00;;;26.90;75.60;;;;;;5098238;28;20133;-61
2021/06/06 05:54:35;;;;;;;9.32;4.75;;;27.10;74.60;;;;;;5102725;28;20102;-61
2021/06/06 05:57:03;;;;;;;9.50;5.43;;;27.10;74.50;;;;;;5099100;28;20127;-61
2021/06/06 05:59:31;;;;;;;12.35;6.00;;;27.20;74.10;;;;;;5095461;28;20136;-61
2021/06/06 06:01:59;;;;;;;6.85;5.32;;;27.30;74.10;;;;;;5106539;28;20122;-61
2021/06/06 06:04:27;;;;;;;10.55;5.75;;;27.30;73.70;;;;;;5098831;28;20055;-61
2021/06/06 06:06:54;;;;;;;7.97;5.53;;;27.40;72.90;;;;;;5110477;28;20043;-60
2021/06/06 06:09:22;;;;;;;5.75;4.50;;;27.60;72.50;;;;;;5100737;28;20056;-60
2021/06/06 06:11:51;;;;;;;6.82;5.18;;;27.70;71.60;;;;;;5112376;28;20385;-60
2021/06/06 06:14:18;;;;;;;7.60;5.07;;;27.70;71.20;;;;;;5083483;28;20097;-61
2021/06/06 06:16:46;;;;;;;8.27;4.93;;;27.60;71.40;;;;;;5113547;28;20090;-60
2021/06/06 06:19:14;;;;;;;6.55;5.13;;;27.50;71.70;;;;;;5099984;28;20055;-60
2021/06/06 06:21:42;;;;;;;9.38;4.97;;;27.40;71.30;;;;;;5112256;28;20097;-60
2021/06/06 06:24:11;;;;;;;7.50;4.47;;;27.40;72.00;;;;;;5082901;28;20056;-60
2021/06/06 06:26:39;;;;;;;7.07;4.40;;;27.30;72.00;;;;;;5095369;28;20101;-61
2021/06/06 06:29:18;;;;;;;7.50;4.60;;;27.10;71.70;;;;;;5084559;28;20044;-61
2021/06/06 06:31:52;;;;;;;5.78;4.25;;;27.00;71.90;;;;;;5112205;28;20067;-60
2021/06/06 06:34:32;;;;;;;12.35;5.03;;;26.90;72.10;;;;;;5085746;28;20059;-60
2021/06/06 06:37:02;;;;;;;4.82;3.70;;;27.00;72.40;;;;;;5095278;28;20117;-60
2021/06/06 06:39:30;;;;;;;7.00;3.88;;;27.00;72.20;;;;;;5101582;28;20497;-60
2021/06/06 06:41:57;;;;;;;8.85;5.00;;;26.80;72.30;;;;;;5111945;28;20051;-60
2021/06/06 06:44:25;;;;;;;6.82;4.03;;;26.70;72.40;;;;;;5076862;28;20040;-60
2021/06/06 06:46:55;;;;;;;5.65;3.65;;;26.70;72.50;;;;;;5111806;28;20051;-60
2021/06/06 06:49:25;;;;;;;5.63;4.00;;;26.80;72.40;;;;;;5099988;28;20490;-60
2021/06/06 06:51:53;;;;;;;7.28;4.00;;;26.90;72.00;;;;;;5113392;28;20046;-60
2021/06/06 06:54:22;;;;;;;5.68;4.15;;;27.00;71.90;;;;;;5100724;28;20048;-60
2021/06/06 06:56:50;;;;;;;5.05;3.78;;;27.10;71.70;;;;;;5095166;28;20043;-61
2021/06/06 06:59:18;;;;;;;4.53;3.13;;;27.20;71.30;;;;;;5100705;28;20517;-61
2021/06/06 07:01:45;;;;;;;5.25;3.63;;;27.30;71.40;;;;;;5113017;28;20151;-60
2021/06/06 07:04:13;;;;;;;6.10;3.67;;;27.30;70.80;;;;;;5079982;28;20048;-61
2021/06/06 07:06:41;;;;;;;7.20;3.97;;;27.40;70.50;;;;;;5112039;28;20493;-60
2021/06/06 07:09:11;;;;;;;5.30;3.80;;;27.20;70.90;;;;;;5101674;28;20402;-61
2021/06/06 07:11:38;;;;;;;5.32;3.38;;;27.10;70.70;;;;;;5116418;28;20048;-60
2021/06/06 07:14:06;;;;;;;5.28;3.50;;;27.20;70.50;;;;;;5103897;28;20086;-60
2021/06/06 07:16:34;;;;;;;5.75;3.28;;;27.30;70.00;;;;;;5098440;28;20138;-60
2021/06/06 07:19:01;;;;;;;5.47;3.53;;;27.60;70.00;;;;;;5104624;28;20044;-60
2021/06/06 07:21:30;;;;;;;7.38;3.60;;;27.80;69.40;;;;;;5116384;28;20051;-61
2021/06/06 07:23:58;;;;;;;5.20;3.78;;;27.80;69.10;;;;;;5103591;28;20489;-60
2021/06/06 07:26:33;;;;;;;5.47;3.40;;;28.10;68.80;;;;;;5097464;28;20052;-60
2021/06/06 07:29:04;;;;;;;4.80;3.45;;;28.50;68.20;;;;;;5103251;28;20040;-60
2021/06/06 07:31:32;;;;;;;4.30;3.40;;;28.90;67.30;;;;;;5058134;28;20053;-61
2021/06/06 07:34:10;;;;;;;7.13;3.45;;;29.20;66.20;;;;;;5080714;28;20045;-61
2021/06/06 07:36:38;;;;;;;4.47;3.42;;;29.50;65.30;;;;;;5098085;28;20512;-61
2021/06/06 07:39:06;;;;;;;9.57;4.18;;;29.80;64.70;;;;;;5102940;28;20494;-61
2021/06/06 07:41:34;;;;;;;7.07;3.45;;;30.10;64.50;;;;;;5108195;28;20412;-61
2021/06/06 07:44:02;;;;;;;5.03;3.83;;;30.20;64.30;;;;;;5103831;28;20497;-61
2021/06/06 07:46:31;;;;;;;4.72;2.90;;;30.10;65.10;;;;;;5094486;28;20498;-61
2021/06/06 07:49:00;;;;;;;4.68;3.20;;;30.10;65.20;;;;;;5110857;28;20050;-61
2021/06/06 07:51:28;;;;;;;4.10;3.67;;;30.10;64.30;;;;;;5098518;28;20093;-61
2021/06/06 07:53:56;;;;;;;5.25;2.92;;;30.00;65.40;;;;;;5104716;28;20059;-61
2021/06/06 07:56:24;;;;;;;5.22;3.08;;;29.80;65.70;;;;;;5083658;28;20102;-61
2021/06/06 07:58:53;;;;;;;4.32;3.20;;;29.70;66.00;;;;;;5099341;28;20056;-61
2021/06/06 08:01:21;;;;;;;5.43;3.05;;;29.60;64.50;;;;;;5097876;28;20083;-61
2021/06/06 08:03:50;;;;;;;5.45;3.25;;;29.60;62.90;;;;;;5098743;28;20131;-61
2021/06/06 08:06:20;;;;;;;9.93;3.83;;;29.50;62.80;;;;;;5097662;28;20076;-62
2021/06/06 08:08:50;;;;;;;7.00;3.70;;;29.60;62.60;;;;;;5099408;28;20055;-61
2021/06/06 08:11:18;;;;;;;4.25;3.20;;;29.80;62.70;;;;;;5093866;28;20051;-61
2021/06/06 08:13:46;;;;;;;5.18;3.38;;;30.00;62.40;;;;;;5101574;28;20098;-60
2021/06/06 08:16:14;;;;;;;5.80;3.10;;;30.10;62.20;;;;;;5111642;28;20078;-61
2021/06/06 08:18:44;;;;;;;5.03;3.47;;;30.40;60.80;;;;;;5087342;28;20044;-61
2021/06/06 08:21:23;;;;;;;5.35;3.42;;;30.60;60.90;;;;;;5097322;28;20047;-61
2021/06/06 08:23:51;;;;;;;4.78;3.97;;;30.90;60.50;;;;;;5097913;28;20046;-61
2021/06/06 08:26:21;;;;;;;7.13;3.28;;;30.50;58.70;;;;;;5086946;28;20483;-61
2021/06/06 08:28:51;;;;;;;4.97;3.20;;;30.70;59.90;;;;;;5089638;28;20489;-61
2021/06/06 08:31:22;;;;;;;6.93;4.07;;;30.90;59.40;;;;;;5085754;28;20044;-61
2021/06/06 08:33:51;;;;;;;10.40;3.65;;;31.00;59.40;;;;;;5098349;28;20460;-61
2021/06/06 08:36:27;;;;;;;5.68;3.55;;;30.80;59.40;;;;;;5089781;28;20040;-61
2021/06/06 08:38:57;;;;;;;7.35;3.47;;;30.40;59.30;;;;;;5093241;28;20055;-61
2021/06/06 08:41:40;;;;;;;5.88;3.53;;;30.30;59.30;;;;;;5097542;28;20401;-61
2021/06/06 08:44:09;;;;;;;5.72;3.13;;;30.10;60.00;;;;;;5092843;28;20085;-61
2021/06/06 08:47:02;;;;;;;5.50;3.40;;;30.30;60.00;;;;;;5088196;28;20105;-61
2021/06/06 08:49:36;;;;;;;7.30;4.00;;;30.50;60.00;;;;;;5080283;28;20051;-61
2021/06/06 08:52:21;;;;;;;6.03;3.92;;;30.70;59.80;;;;;;5093900;28;20455;-62
2021/06/06 08:55:34;;;;;;;4.82;3.05;;;30.90;59.90;;;;;;5113153;27;20048;-60
2021/06/06 08:58:02;;;;;;;8.77;3.85;;;31.00;59.10;;;;;;5083892;28;20120;-60
2021/06/06 09:00:38;;;;;;;4.10;3.17;;;30.70;58.30;;;;;;5102535;28;20097;-60
2021/06/06 09:03:12;;;;;;;4.85;3.60;;;30.60;58.50;;;;;;5097607;28;20040;-60
2021/06/06 09:05:44;;;;;;;5.25;3.22;;;30.80;58.70;;;;;;5089128;28;20072;-60
2021/06/06 09:08:21;;;;;;;5.45;3.80;;;30.70;58.80;;;;;;5096877;28;20054;-61
2021/06/06 09:10:54;;;;;;;7.25;3.90;;;30.90;59.00;;;;;;5104120;28;20044;-60
2021/06/06 09:13:24;;;;;;;5.25;2.97;;;30.70;57.30;;;;;;5105529;28;20060;-60
2021/06/06 09:15:58;;;;;;;5.32;3.53;;;30.50;57.40;;;;;;5107359;28;20054;-60
2021/06/06 09:18:29;;;;;;;8.27;2.97;;;30.30;58.20;;;;;;5084425;28;20109;-60
2021/06/06 09:21:19;;;;;;;5.60;3.75;;;30.40;58.10;;;;;;5102086;28;20083;-60
2021/06/06 09:23:51;;;;;;;7.75;3.67;;;30.50;58.10;;;;;;5101552;28;20048;-60
2021/06/06 09:26:19;;;;;;;4.57;3.33;;;30.80;58.00;;;;;;5110858;28;20071;-60
2021/06/06 09:28:49;;;;;;;12.60;3.67;;;30.70;58.60;;;;;;5104647;27;20079;-61
2021/06/06 09:31:17;;;;;;;6.68;3.40;;;30.90;58.30;;;;;;5098061;28;20059;-61
2021/06/06 09:33:58;;;;;;;6.10;3.17;;;31.00;58.30;;;;;;5101615;28;20149;-61
2021/06/06 09:36:43;;;;;;;5.40;3.15;;;30.90;57.80;;;;;;5097448;28;20075;-62
2021/06/06 09:39:22;;;;;;;7.93;3.83;;;31.00;57.50;;;;;;5101883;28;20054;-61
2021/06/06 09:41:52;;;;;;;7.82;4.78;;;31.20;57.30;;;;;;5089562;28;20051;-61
2021/06/06 09:44:29;;;;;;;6.70;3.58;;;31.50;57.40;;;;;;5102510;28;20047;-61
2021/06/06 09:47:05;;;;;;;7.40;3.67;;;31.70;57.10;;;;;;5102801;28;20070;-62
2021/06/06 09:49:43;;;;;;;6.03;3.65;;;31.70;56.70;;;;;;5092650;28;21575;-61
2021/06/06 09:52:40;;;;;;;8.40;4.38;;;31.90;56.70;;;;;;5081428;28;20427;-61
2021/06/06 09:55:31;;;;;;;5.20;4.20;;;31.50;56.60;;;;;;5092797;28;20344;-61
2021/06/06 09:58:26;;;;;;;5.10;3.47;;;31.70;56.90;;;;;;5090121;28;20044;-61
2021/06/06 10:01:00;;;;;;;6.15;4.15;;;31.50;57.10;;;;;;5091747;28;20040;-60
2021/06/06 10:03:42;;;;;;;6.78;3.28;;;31.40;57.10;;;;;;5096808;28;20063;-61
2021/06/06 10:06:16;;;;;;;7.90;3.92;;;31.60;57.60;;;;;;5068954;28;20409;-61
2021/06/06 10:08:55;;;;;;;15.18;3.97;;;31.50;56.60;;;;;;5095479;28;20056;-61
2021/06/06 10:11:45;;;;;;;8.85;3.22;;;31.60;56.50;;;;;;5101181;28;20127;-60
2021/06/06 10:14:14;;;;;;;7.70;4.05;;;31.40;56.60;;;;;;5083173;28;20037;-61
2021/06/06 10:16:45;;;;;;;9.50;4.50;;;31.30;57.60;;;;;;5111759;28;20047;-61
2021/06/06 10:19:51;;;;;;;8.82;3.50;;;31.00;57.80;;;;;;5103673;28;20044;-61
2021/06/06 10:22:28;;;;;;;7.88;4.03;;;30.90;58.40;;;;;;5095409;28;20033;-61
2021/06/06 10:25:06;;;;;;;7.30;4.70;;;30.80;58.50;;;;;;5100300;28;20058;-61
2021/06/06 10:27:41;;;;;;;8.75;5.13;;;31.00;58.90;;;;;;5078823;28;20048;-61
2021/06/06 10:30:21;;;;;;;8.35;4.85;;;31.00;58.00;;;;;;5098746;28;20052;-61
2021/06/06 10:32:58;;;;;;;10.00;4.53;;;31.00;58.20;;;;;;5098701;28;20044;-61
2021/06/06 10:35:29;;;;;;;12.00;4.32;;;31.20;58.80;;;;;;5096312;28;20405;-61
2021/06/06 10:37:59;;;;;;;8.57;3.75;;;31.50;58.30;;;;;;5083143;28;20090;-61
2021/06/06 10:40:51;;;;;;;6.15;3.80;;;31.60;58.00;;;;;;5093875;28;20060;-61
2021/06/06 10:43:41;;;;;;;11.48;4.13;;;31.60;57.80;;;;;;5108559;28;20566;-61
2021/06/06 10:46:25;;;;;;;9.00;3.70;;;31.70;57.40;;;;;;5114105;28;20055;-61
2021/06/06 10:49:17;;;;;;;5.90;3.08;;;31.40;57.30;;;;;;5105011;28;20138;-61
2021/06/06 10:52:00;;;;;;;8.15;3.55;;;31.40;57.60;;;;;;5076392;28;20060;-61
2021/06/06 10:54:41;;;;;;;8.15;3.58;;;31.40;57.50;;;;;;5107514;28;20502;-61
2021/06/06 10:57:30;;;;;;;8.10;4.07;;;31.40;58.10;;;;;;5095385;28;20044;-61
2021/06/06 11:00:01;;;;;;;7.55;4.45;;;31.60;58.10;;;;;;5101495;28;20051;-61
2021/06/06 11:02:29;;;;;;;7.18;4.43;;;31.20;63.20;;;;;;5078797;28;20067;-61
2021/06/06 11:05:00;;;;;;;6.30;3.95;;;30.90;65.80;;;;;;5101099;28;20399;-61
2021/06/06 11:07:31;;;;;;;8.57;3.80;;;30.30;68.30;;;;;;5096027;28;20044;-61
2021/06/06 11:10:18;;;;;;;9.75;4.72;;;29.90;69.50;;;;;;5101578;28;20134;-60
2021/06/06 11:12:52;;;;;;;7.35;4.43;;;29.50;70.40;;;;;;5097781;28;20074;-61
2021/06/06 11:15:37;;;;;;;7.22;4.05;;;29.60;70.50;;;;;;5107627;28;20544;-61
2021/06/06 11:18:16;;;;;;;8.18;3.67;;;29.60;69.60;;;;;;5111093;28;20048;-60
2021/06/06 11:20:55;;;;;;;6.88;3.85;;;29.80;69.20;;;;;;5107311;28;20445;-61
2021/06/06 11:23:33;;;;;;;8.88;3.55;;;30.10;64.50;;;;;;5089586;28;20044;-61
2021/06/06 11:26:20;;;;;;;5.68;3.90;;;30.40;62.60;;;;;;5109655;28;20369;-60
2021/06/06 11:28:51;;;;;;;7.82;4.80;;;30.60;60.60;;;;;;5105028;28;20093;-61
2021/06/06 11:31:30;;;;;;;11.57;4.90;;;30.90;60.10;;;;;;5113137;28;20607;-61
2021/06/06 11:34:05;;;;;;;9.52;3.85;;;31.20;59.60;;;;;;5102336;28;20040;-61
2021/06/06 11:36:36;;;;;;;5.32;3.30;;;31.40;59.30;;;;;;5074573;28;20054;-61
2021/06/06 11:39:17;;;;;;;7.55;2.95;;;31.50;59.10;;;;;;5092758;28;20056;-60
2021/06/06 11:41:46;;;;;;;9.27;3.00;;;31.50;57.50;;;;;;5072876;28;20079;-61
2021/06/06 11:44:24;;;;;;;6.25;3.33;;;31.60;57.50;;;;;;5099711;28;20047;-61
2021/06/06 11:47:04;;;;;;;6.13;3.20;;;31.70;56.70;;;;;;5113530;28;20118;-61
2021/06/06 11:49:50;;;;;;;4.55;2.90;;;31.70;56.70;;;;;;5104590;28;20044;-61
2021/06/06 11:52:29;;;;;;;9.55;3.78;;;31.50;55.90;;;;;;5094212;28;20103;-61
2021/06/06 11:55:02;;;;;;;8.20;3.75;;;31.20;55.40;;;;;;5097877;28;20072;-61
2021/06/06 11:57:37;;;;;;;4.97;2.97;;;31.10;55.80;;;;;;5094933;28;20063;-61
2021/06/06 12:00:11;;;;;;;6.82;3.00;;;31.00;56.30;;;;;;5100427;28;20079;-61
2021/06/06 12:02:40;;;;;;;5.35;3.15;;;31.00;56.60;;;;;;5096176;28;20050;-61
2021/06/06 12:05:11;;;;;;;8.95;3.95;;;30.90;57.60;;;;;;5105239;28;20096;-61
2021/06/06 12:07:43;;;;;;;7.03;3.05;;;30.70;57.00;;;;;;5110663;28;20478;-61
2021/06/06 12:10:33;;;;;;;5.70;3.25;;;30.70;57.00;;;;;;5083767;28;20090;-60
2021/06/06 12:13:02;;;;;;;7.80;3.33;;;30.60;57.60;;;;;;5089812;28;20040;-61
2021/06/06 12:15:40;;;;;;;5.22;3.60;;;30.50;57.90;;;;;;5075674;28;20062;-60
2021/06/06 12:18:22;;;;;;;6.75;4.53;;;30.40;58.10;;;;;;5071355;28;20052;-60
2021/06/06 12:21:09;;;;;;;7.95;6.18;;;30.30;58.00;;;;;;5087858;28;20065;-61
2021/06/06 12:24:02;;;;;;;8.05;5.40;;;30.30;58.20;;;;;;5063915;28;20103;-61
2021/06/06 12:26:35;;;;;;;13.32;9.25;;;30.30;58.50;;;;;;5091585;28;20048;-61
2021/06/06 12:29:03;;;;;;;14.05;8.35;;;30.30;58.70;;;;;;5059940;28;20099;-61
2021/06/06 12:31:42;;;;;;;10.52;6.47;;;30.40;58.50;;;;;;5035845;28;20053;-61
2021/06/06 12:34:22;;;;;;;7.47;5.18;;;30.40;58.60;;;;;;5077197;28;20103;-61
2021/06/06 12:36:59;;;;;;;8.65;4.95;;;30.40;58.20;;;;;;5094430;28;20056;-61
2021/06/06 12:39:28;;;;;;;6.90;3.83;;;30.50;58.00;;;;;;5082353;28;20056;-61
2021/06/06 12:41:59;;;;;;;8.25;4.53;;;30.60;58.30;;;;;;5094568;28;20048;-61
2021/06/06 12:44:31;;;;;;;6.38;4.40;;;30.60;57.70;;;;;;5081007;28;20074;-61
2021/06/06 12:47:04;;;;;;;6.57;4.68;;;30.80;57.80;;;;;;5075641;28;20052;-61
2021/06/06 12:49:49;;;;;;;20.35;14.95;;;30.90;57.40;;;;;;5083323;28;20055;-61
2021/06/06 12:52:22;;;;;;;15.07;9.48;;;30.70;56.40;;;;;;5074091;28;20407;-61
2021/06/06 12:54:50;;;;;;;8.27;5.88;;;30.80;56.70;;;;;;5084678;28;20048;-61
2021/06/06 12:57:23;;;;;;;7.47;3.85;;;30.90;56.50;;;;;;5091068;28;20055;-61
2021/06/06 13:00:03;;;;;;;9.23;3.80;;;31.00;56.80;;;;;;5084821;28;20127;-61
2021/06/06 13:02:43;;;;;;;6.18;2.50;;;31.10;56.60;;;;;;5089617;28;20482;-61
2021/06/06 13:05:28;;;;;;;7.47;2.83;;;31.00;56.80;;;;;;5085026;28;20048;-61
2021/06/06 13:07:59;;;;;;;6.70;3.78;;;31.00;56.80;;;;;;5091616;28;20044;-61
2021/06/06 13:10:39;;;;;;;7.47;3.28;;;31.10;56.50;;;;;;5096593;28;20051;-61
2021/06/06 13:13:16;;;;;;;6.03;2.88;;;31.20;56.30;;;;;;5110135;28;20075;-61
2021/06/06 13:15:46;;;;;;;6.93;3.22;;;31.30;56.20;;;;;;5107729;28;20082;-61
2021/06/06 13:18:21;;;;;;;6.55;3.25;;;31.40;56.20;;;;;;5109018;28;20065;-61
2021/06/06 13:20:58;;;;;;;8.73;4.72;;;31.40;56.20;;;;;;5106851;28;20496;-61
2021/06/06 13:23:39;;;;;;;7.90;4.25;;;31.20;56.70;;;;;;5106299;28;20072;-61